sensor_id;sensor_type;location;lat;lon;timestamp;P1;durP1;ratioP1;P2;durP2;ratioP2
10295;SDS011;5193;51.032;6.356;2023-03-09T00:00:31;41.53;;;23.17;;
10295;SDS011;5193;51.032;6.356;2023-03-09T00:02:57;39.17;;;22.30;;
10295;SDS011;5193;51.032;6.356;2023-03-09T00:05:22;40.33;;;23.30;;
10295;SDS011;5193;51.032;6.356;2023-03-09T00:07:48;38.37;;;22.00;;
10295;SDS011;5193;51.032;6.356;2023-03-09T00:10:14;34.60;;;20.50;;
10295;SDS011;5193;51.032;6.356;2023-03-09T00:12:40;34.20;;;20.10;;
10295;SDS011;5193;51.032;6.356;2023-03-09T00:15:07;34.33;;;21.03;;
10295;SDS011;5193;51.032;6.356;2023-03-09T00:17:34;37.83;;;21.17;;
10295;SDS011;5193;51.032;6.356;2023-03-09T00:20:00;35.07;;;20.20;;
10295;SDS011;5193;51.032;6.356;2023-03-09T00:22:39;33.67;;;20.23;;
10295;SDS011;5193;51.032;6.356;2023-03-09T00:25:05;33.73;;;19.53;;
10295;SDS011;5193;51.032;6.356;2023-03-09T00:27:32;34.57;;;19.70;;
10295;SDS011;5193;51.032;6.356;2023-03-09T00:29:57;32.57;;;19.07;;
10295;SDS011;5193;51.032;6.356;2023-03-09T00:32:23;33.50;;;19.50;;
10295;SDS011;5193;51.032;6.356;2023-03-09T00:34:49;32.33;;;19.17;;
10295;SDS011;5193;51.032;6.356;2023-03-09T00:37:14;36.33;;;20.03;;
10295;SDS011;5193;51.032;6.356;2023-03-09T00:39:40;33.80;;;19.17;;
10295;SDS011;5193;51.032;6.356;2023-03-09T00:42:05;39.23;;;22.43;;
10295;SDS011;5193;51.032;6.356;2023-03-09T00:44:31;34.40;;;19.13;;
10295;SDS011;5193;51.032;6.356;2023-03-09T00:46:56;34.07;;;20.17;;
10295;SDS011;5193;51.032;6.356;2023-03-09T00:49:22;33.30;;;19.30;;
10295;SDS011;5193;51.032;6.356;2023-03-09T00:51:47;37.60;;;21.23;;
10295;SDS011;5193;51.032;6.356;2023-03-09T00:54:14;39.73;;;21.70;;
10295;SDS011;5193;51.032;6.356;2023-03-09T00:56:39;31.83;;;18.30;;
10295;SDS011;5193;51.032;6.356;2023-03-09T00:59:06;37.17;;;21.30;;
10295;SDS011;5193;51.032;6.356;2023-03-09T01:01:31;36.60;;;21.43;;
10295;SDS011;5193;51.032;6.356;2023-03-09T01:03:57;35.77;;;19.97;;
10295;SDS011;5193;51.032;6.356;2023-03-09T01:06:23;40.73;;;21.47;;
10295;SDS011;5193;51.032;6.356;2023-03-09T01:08:50;36.00;;;20.10;;
10295;SDS011;5193;51.032;6.356;2023-03-09T01:11:17;35.07;;;19.10;;
10295;SDS011;5193;51.032;6.356;2023-03-09T01:13:43;40.80;;;22.50;;
10295;SDS011;5193;51.032;6.356;2023-03-09T01:16:09;39.77;;;22.10;;
10295;SDS011;5193;51.032;6.356;2023-03-09T01:18:35;40.70;;;22.50;;
10295;SDS011;5193;51.032;6.356;2023-03-09T01:21:02;39.43;;;21.03;;
10295;SDS011;5193;51.032;6.356;2023-03-09T01:23:28;44.00;;;21.93;;
10295;SDS011;5193;51.032;6.356;2023-03-09T01:25:54;42.90;;;22.10;;
10295;SDS011;5193;51.032;6.356;2023-03-09T01:28:20;43.50;;;21.57;;
10295;SDS011;5193;51.032;6.356;2023-03-09T01:30:46;41.63;;;21.80;;
10295;SDS011;5193;51.032;6.356;2023-03-09T01:33:11;40.73;;;21.83;;
10295;SDS011;5193;51.032;6.356;2023-03-09T01:35:37;47.17;;;22.33;;
10295;SDS011;5193;51.032;6.356;2023-03-09T01:38:03;42.10;;;21.93;;
10295;SDS011;5193;51.032;6.356;2023-03-09T01:40:29;46.50;;;23.53;;
10295;SDS011;5193;51.032;6.356;2023-03-09T01:42:59;41.57;;;20.93;;
10295;SDS011;5193;51.032;6.356;2023-03-09T01:48:14;42.83;;;20.93;;
10295;SDS011;5193;51.032;6.356;2023-03-09T01:50:39;44.37;;;20.83;;
10295;SDS011;5193;51.032;6.356;2023-03-09T01:53:11;38.37;;;20.00;;
10295;SDS011;5193;51.032;6.356;2023-03-09T01:55:42;41.17;;;19.57;;
10295;SDS011;5193;51.032;6.356;2023-03-09T01:58:13;44.77;;;21.97;;
10295;SDS011;5193;51.032;6.356;2023-03-09T02:00:45;43.57;;;23.20;;
10295;SDS011;5193;51.032;6.356;2023-03-09T02:03:21;41.27;;;20.73;;
10295;SDS011;5193;51.032;6.356;2023-03-09T02:06:03;40.93;;;20.87;;
10295;SDS011;5193;51.032;6.356;2023-03-09T02:08:42;43.30;;;21.93;;
10295;SDS011;5193;51.032;6.356;2023-03-09T02:11:14;43.87;;;21.87;;
10295;SDS011;5193;51.032;6.356;2023-03-09T02:13:40;43.47;;;22.93;;
10295;SDS011;5193;51.032;6.356;2023-03-09T02:16:08;44.03;;;22.53;;
10295;SDS011;5193;51.032;6.356;2023-03-09T02:18:34;51.37;;;23.00;;
10295;SDS011;5193;51.032;6.356;2023-03-09T02:21:05;49.20;;;23.57;;
10295;SDS011;5193;51.032;6.356;2023-03-09T02:29:10;54.23;;;24.83;;
10295;SDS011;5193;51.032;6.356;2023-03-09T02:31:36;48.73;;;23.73;;
10295;SDS011;5193;51.032;6.356;2023-03-09T02:34:01;49.13;;;22.27;;
10295;SDS011;5193;51.032;6.356;2023-03-09T02:36:27;50.63;;;20.93;;
10295;SDS011;5193;51.032;6.356;2023-03-09T02:38:53;42.40;;;19.53;;
10295;SDS011;5193;51.032;6.356;2023-03-09T02:41:20;48.33;;;23.50;;
10295;SDS011;5193;51.032;6.356;2023-03-09T02:43:47;46.80;;;22.77;;
10295;SDS011;5193;51.032;6.356;2023-03-09T02:46:16;52.67;;;21.37;;
10295;SDS011;5193;51.032;6.356;2023-03-09T02:48:42;50.00;;;22.83;;
10295;SDS011;5193;51.032;6.356;2023-03-09T02:51:07;49.17;;;21.47;;
10295;SDS011;5193;51.032;6.356;2023-03-09T02:53:33;46.17;;;21.10;;
10295;SDS011;5193;51.032;6.356;2023-03-09T02:56:00;48.17;;;22.63;;
10295;SDS011;5193;51.032;6.356;2023-03-09T02:58:26;51.37;;;23.40;;
10295;SDS011;5193;51.032;6.356;2023-03-09T03:00:52;53.60;;;23.77;;
10295;SDS011;5193;51.032;6.356;2023-03-09T03:03:17;52.20;;;22.17;;
10295;SDS011;5193;51.032;6.356;2023-03-09T03:05:45;53.23;;;23.30;;
10295;SDS011;5193;51.032;6.356;2023-03-09T03:08:14;49.80;;;22.17;;
10295;SDS011;5193;51.032;6.356;2023-03-09T03:13:27;44.50;;;20.07;;
10295;SDS011;5193;51.032;6.356;2023-03-09T03:16:02;41.83;;;19.57;;
10295;SDS011;5193;51.032;6.356;2023-03-09T03:18:28;40.43;;;19.27;;
10295;SDS011;5193;51.032;6.356;2023-03-09T03:20:53;47.30;;;20.07;;
10295;SDS011;5193;51.032;6.356;2023-03-09T03:23:19;46.27;;;21.43;;
10295;SDS011;5193;51.032;6.356;2023-03-09T03:25:45;48.77;;;21.13;;
10295;SDS011;5193;51.032;6.356;2023-03-09T03:28:10;51.67;;;22.27;;
10295;SDS011;5193;51.032;6.356;2023-03-09T03:30:36;57.10;;;21.93;;
10295;SDS011;5193;51.032;6.356;2023-03-09T03:33:01;55.90;;;23.83;;
10295;SDS011;5193;51.032;6.356;2023-03-09T03:35:28;50.37;;;22.57;;
10295;SDS011;5193;51.032;6.356;2023-03-09T03:37:53;45.53;;;20.60;;
10295;SDS011;5193;51.032;6.356;2023-03-09T03:40:19;54.10;;;22.40;;
10295;SDS011;5193;51.032;6.356;2023-03-09T03:42:45;57.27;;;21.67;;
10295;SDS011;5193;51.032;6.356;2023-03-09T03:45:11;57.03;;;21.60;;
10295;SDS011;5193;51.032;6.356;2023-03-09T03:47:37;53.00;;;21.87;;
10295;SDS011;5193;51.032;6.356;2023-03-09T03:50:02;50.23;;;22.43;;
10295;SDS011;5193;51.032;6.356;2023-03-09T03:52:28;55.27;;;23.03;;
10295;SDS011;5193;51.032;6.356;2023-03-09T03:54:53;62.60;;;25.03;;
10295;SDS011;5193;51.032;6.356;2023-03-09T03:57:19;54.33;;;22.87;;
10295;SDS011;5193;51.032;6.356;2023-03-09T03:59:47;60.90;;;22.87;;
10295;SDS011;5193;51.032;6.356;2023-03-09T04:02:13;55.17;;;21.13;;
10295;SDS011;5193;51.032;6.356;2023-03-09T04:04:39;58.77;;;22.70;;
10295;SDS011;5193;51.032;6.356;2023-03-09T04:07:04;57.27;;;22.30;;
10295;SDS011;5193;51.032;6.356;2023-03-09T04:09:30;58.37;;;24.03;;
10295;SDS011;5193;51.032;6.356;2023-03-09T04:11:56;57.30;;;24.70;;
10295;SDS011;5193;51.032;6.356;2023-03-09T04:14:21;63.07;;;23.87;;
10295;SDS011;5193;51.032;6.356;2023-03-09T04:16:47;57.00;;;23.73;;
10295;SDS011;5193;51.032;6.356;2023-03-09T04:19:12;59.70;;;23.10;;
10295;SDS011;5193;51.032;6.356;2023-03-09T04:21:38;50.07;;;22.30;;
10295;SDS011;5193;51.032;6.356;2023-03-09T04:24:03;62.10;;;24.03;;
10295;SDS011;5193;51.032;6.356;2023-03-09T04:26:29;58.47;;;23.13;;
10295;SDS011;5193;51.032;6.356;2023-03-09T04:28:55;54.80;;;23.23;;
10295;SDS011;5193;51.032;6.356;2023-03-09T04:31:20;54.77;;;21.37;;
10295;SDS011;5193;51.032;6.356;2023-03-09T04:33:46;51.10;;;22.67;;
10295;SDS011;5193;51.032;6.356;2023-03-09T04:36:12;50.40;;;22.60;;
10295;SDS011;5193;51.032;6.356;2023-03-09T04:38:37;56.43;;;23.30;;
10295;SDS011;5193;51.032;6.356;2023-03-09T04:41:03;62.73;;;24.93;;
10295;SDS011;5193;51.032;6.356;2023-03-09T04:43:29;56.60;;;23.00;;
10295;SDS011;5193;51.032;6.356;2023-03-09T04:45:55;63.50;;;24.77;;
10295;SDS011;5193;51.032;6.356;2023-03-09T04:48:20;50.60;;;21.27;;
10295;SDS011;5193;51.032;6.356;2023-03-09T04:50:46;44.17;;;19.83;;
10295;SDS011;5193;51.032;6.356;2023-03-09T04:53:11;48.50;;;20.17;;
10295;SDS011;5193;51.032;6.356;2023-03-09T04:55:37;50.27;;;20.80;;
10295;SDS011;5193;51.032;6.356;2023-03-09T04:58:03;44.33;;;20.33;;
10295;SDS011;5193;51.032;6.356;2023-03-09T05:00:29;49.83;;;21.33;;
10295;SDS011;5193;51.032;6.356;2023-03-09T05:02:55;54.97;;;22.67;;
10295;SDS011;5193;51.032;6.356;2023-03-09T05:05:21;53.03;;;20.60;;
10295;SDS011;5193;51.032;6.356;2023-03-09T05:07:46;52.27;;;21.37;;
10295;SDS011;5193;51.032;6.356;2023-03-09T05:10:12;44.37;;;19.87;;
10295;SDS011;5193;51.032;6.356;2023-03-09T05:12:38;42.60;;;19.77;;
10295;SDS011;5193;51.032;6.356;2023-03-09T05:15:03;44.57;;;19.37;;
10295;SDS011;5193;51.032;6.356;2023-03-09T05:17:29;40.90;;;18.60;;
10295;SDS011;5193;51.032;6.356;2023-03-09T05:19:56;38.47;;;16.63;;
10295;SDS011;5193;51.032;6.356;2023-03-09T05:22:21;37.67;;;16.70;;
10295;SDS011;5193;51.032;6.356;2023-03-09T05:24:47;36.93;;;17.07;;
10295;SDS011;5193;51.032;6.356;2023-03-09T05:27:13;38.17;;;17.10;;
10295;SDS011;5193;51.032;6.356;2023-03-09T05:29:39;40.60;;;17.77;;
10295;SDS011;5193;51.032;6.356;2023-03-09T05:32:05;42.27;;;18.67;;
10295;SDS011;5193;51.032;6.356;2023-03-09T05:34:31;40.33;;;18.37;;
10295;SDS011;5193;51.032;6.356;2023-03-09T05:36:58;41.47;;;18.40;;
10295;SDS011;5193;51.032;6.356;2023-03-09T05:39:24;48.80;;;22.03;;
10295;SDS011;5193;51.032;6.356;2023-03-09T05:41:49;50.07;;;21.97;;
10295;SDS011;5193;51.032;6.356;2023-03-09T05:44:15;44.00;;;18.90;;
10295;SDS011;5193;51.032;6.356;2023-03-09T05:46:41;45.50;;;19.37;;
10295;SDS011;5193;51.032;6.356;2023-03-09T05:49:06;40.60;;;17.60;;
10295;SDS011;5193;51.032;6.356;2023-03-09T05:51:32;42.70;;;19.03;;
10295;SDS011;5193;51.032;6.356;2023-03-09T05:53:58;39.23;;;18.53;;
10295;SDS011;5193;51.032;6.356;2023-03-09T05:56:23;34.50;;;17.13;;
10295;SDS011;5193;51.032;6.356;2023-03-09T05:58:49;36.20;;;17.63;;
10295;SDS011;5193;51.032;6.356;2023-03-09T06:01:19;37.77;;;16.80;;
10295;SDS011;5193;51.032;6.356;2023-03-09T06:03:47;36.47;;;17.53;;
10295;SDS011;5193;51.032;6.356;2023-03-09T06:06:14;36.90;;;16.60;;
10295;SDS011;5193;51.032;6.356;2023-03-09T06:08:40;32.57;;;15.53;;
10295;SDS011;5193;51.032;6.356;2023-03-09T06:11:06;38.90;;;16.97;;
10295;SDS011;5193;51.032;6.356;2023-03-09T06:13:32;35.83;;;16.83;;
10295;SDS011;5193;51.032;6.356;2023-03-09T06:15:57;35.63;;;16.63;;
10295;SDS011;5193;51.032;6.356;2023-03-09T06:18:23;44.37;;;18.47;;
10295;SDS011;5193;51.032;6.356;2023-03-09T06:20:49;42.23;;;19.20;;
10295;SDS011;5193;51.032;6.356;2023-03-09T06:23:15;41.03;;;19.97;;
10295;SDS011;5193;51.032;6.356;2023-03-09T06:25:40;46.53;;;19.70;;
10295;SDS011;5193;51.032;6.356;2023-03-09T06:28:06;44.70;;;17.87;;
10295;SDS011;5193;51.032;6.356;2023-03-09T06:30:32;43.97;;;19.93;;
10295;SDS011;5193;51.032;6.356;2023-03-09T06:32:58;38.43;;;17.77;;
10295;SDS011;5193;51.032;6.356;2023-03-09T06:35:24;42.93;;;18.80;;
10295;SDS011;5193;51.032;6.356;2023-03-09T06:37:50;45.80;;;20.80;;
10295;SDS011;5193;51.032;6.356;2023-03-09T06:40:15;49.13;;;20.90;;
10295;SDS011;5193;51.032;6.356;2023-03-09T06:42:42;43.40;;;20.37;;
10295;SDS011;5193;51.032;6.356;2023-03-09T06:45:08;45.90;;;20.60;;
10295;SDS011;5193;51.032;6.356;2023-03-09T06:47:34;47.43;;;21.73;;
10295;SDS011;5193;51.032;6.356;2023-03-09T06:49:59;47.87;;;21.53;;
10295;SDS011;5193;51.032;6.356;2023-03-09T06:52:25;49.30;;;20.67;;
10295;SDS011;5193;51.032;6.356;2023-03-09T06:54:51;44.20;;;20.33;;
10295;SDS011;5193;51.032;6.356;2023-03-09T06:57:17;48.83;;;21.03;;
10295;SDS011;5193;51.032;6.356;2023-03-09T06:59:42;45.90;;;19.70;;
10295;SDS011;5193;51.032;6.356;2023-03-09T07:02:11;52.37;;;20.07;;
10295;SDS011;5193;51.032;6.356;2023-03-09T07:04:38;50.37;;;19.97;;
10295;SDS011;5193;51.032;6.356;2023-03-09T07:07:04;48.00;;;20.50;;
10295;SDS011;5193;51.032;6.356;2023-03-09T07:09:30;52.57;;;20.13;;
10295;SDS011;5193;51.032;6.356;2023-03-09T07:11:56;44.77;;;19.73;;
10295;SDS011;5193;51.032;6.356;2023-03-09T07:14:23;42.83;;;17.97;;
10295;SDS011;5193;51.032;6.356;2023-03-09T07:16:52;49.27;;;19.73;;
10295;SDS011;5193;51.032;6.356;2023-03-09T07:19:18;44.67;;;19.57;;
10295;SDS011;5193;51.032;6.356;2023-03-09T07:21:44;46.43;;;18.93;;
10295;SDS011;5193;51.032;6.356;2023-03-09T07:24:09;45.40;;;18.37;;
10295;SDS011;5193;51.032;6.356;2023-03-09T07:26:35;46.20;;;19.80;;
10295;SDS011;5193;51.032;6.356;2023-03-09T07:29:00;41.57;;;18.73;;
10295;SDS011;5193;51.032;6.356;2023-03-09T07:31:26;41.80;;;18.33;;
10295;SDS011;5193;51.032;6.356;2023-03-09T07:33:54;42.20;;;18.70;;
10295;SDS011;5193;51.032;6.356;2023-03-09T07:36:20;47.33;;;19.97;;
10295;SDS011;5193;51.032;6.356;2023-03-09T07:38:45;42.00;;;16.13;;
10295;SDS011;5193;51.032;6.356;2023-03-09T07:41:12;41.40;;;17.43;;
10295;SDS011;5193;51.032;6.356;2023-03-09T07:43:38;36.47;;;16.53;;
10295;SDS011;5193;51.032;6.356;2023-03-09T07:46:08;38.47;;;16.73;;
10295;SDS011;5193;51.032;6.356;2023-03-09T07:48:36;42.17;;;17.13;;
10295;SDS011;5193;51.032;6.356;2023-03-09T07:51:03;43.23;;;17.80;;
10295;SDS011;5193;51.032;6.356;2023-03-09T07:53:29;44.03;;;17.70;;
10295;SDS011;5193;51.032;6.356;2023-03-09T07:55:56;37.80;;;16.73;;
10295;SDS011;5193;51.032;6.356;2023-03-09T07:58:22;32.73;;;15.00;;
10295;SDS011;5193;51.032;6.356;2023-03-09T08:00:48;40.63;;;16.87;;
10295;SDS011;5193;51.032;6.356;2023-03-09T08:03:13;42.00;;;16.73;;
10295;SDS011;5193;51.032;6.356;2023-03-09T08:05:40;37.00;;;16.53;;
10295;SDS011;5193;51.032;6.356;2023-03-09T08:08:06;33.03;;;15.70;;
10295;SDS011;5193;51.032;6.356;2023-03-09T08:10:33;40.70;;;17.60;;
10295;SDS011;5193;51.032;6.356;2023-03-09T08:12:58;33.70;;;16.00;;
10295;SDS011;5193;51.032;6.356;2023-03-09T08:15:24;34.90;;;16.00;;
10295;SDS011;5193;51.032;6.356;2023-03-09T08:17:50;31.80;;;14.50;;
10295;SDS011;5193;51.032;6.356;2023-03-09T08:20:16;33.93;;;15.07;;
10295;SDS011;5193;51.032;6.356;2023-03-09T08:22:41;29.70;;;14.50;;
10295;SDS011;5193;51.032;6.356;2023-03-09T08:25:07;33.77;;;14.50;;
10295;SDS011;5193;51.032;6.356;2023-03-09T08:27:40;34.13;;;16.53;;
10295;SDS011;5193;51.032;6.356;2023-03-09T08:30:07;34.10;;;15.83;;
10295;SDS011;5193;51.032;6.356;2023-03-09T08:32:34;37.33;;;16.00;;
10295;SDS011;5193;51.032;6.356;2023-03-09T08:34:59;33.80;;;15.80;;
10295;SDS011;5193;51.032;6.356;2023-03-09T08:37:25;34.40;;;14.83;;
10295;SDS011;5193;51.032;6.356;2023-03-09T08:39:51;31.27;;;15.57;;
10295;SDS011;5193;51.032;6.356;2023-03-09T08:42:16;31.60;;;15.30;;
10295;SDS011;5193;51.032;6.356;2023-03-09T08:44:43;31.77;;;14.20;;
10295;SDS011;5193;51.032;6.356;2023-03-09T08:47:09;32.77;;;14.23;;
10295;SDS011;5193;51.032;6.356;2023-03-09T08:49:34;35.70;;;16.17;;
10295;SDS011;5193;51.032;6.356;2023-03-09T08:52:02;33.73;;;16.80;;
10295;SDS011;5193;51.032;6.356;2023-03-09T08:54:28;31.33;;;16.50;;
10295;SDS011;5193;51.032;6.356;2023-03-09T08:56:53;38.73;;;18.03;;
10295;SDS011;5193;51.032;6.356;2023-03-09T08:59:19;34.27;;;15.60;;
10295;SDS011;5193;51.032;6.356;2023-03-09T09:01:45;26.57;;;14.67;;
10295;SDS011;5193;51.032;6.356;2023-03-09T09:04:10;27.87;;;14.07;;
10295;SDS011;5193;51.032;6.356;2023-03-09T09:06:36;23.93;;;13.43;;
10295;SDS011;5193;51.032;6.356;2023-03-09T09:09:02;18.07;;;10.30;;
10295;SDS011;5193;51.032;6.356;2023-03-09T09:11:27;21.63;;;11.70;;
10295;SDS011;5193;51.032;6.356;2023-03-09T09:13:53;27.10;;;13.10;;
10295;SDS011;5193;51.032;6.356;2023-03-09T09:16:19;30.03;;;12.07;;
10295;SDS011;5193;51.032;6.356;2023-03-09T09:18:45;24.80;;;12.70;;
10295;SDS011;5193;51.032;6.356;2023-03-09T09:21:12;28.13;;;13.67;;
10295;SDS011;5193;51.032;6.356;2023-03-09T09:23:40;28.27;;;15.20;;
10295;SDS011;5193;51.032;6.356;2023-03-09T09:26:06;29.93;;;15.77;;
10295;SDS011;5193;51.032;6.356;2023-03-09T09:28:33;33.50;;;15.97;;
10295;SDS011;5193;51.032;6.356;2023-03-09T09:31:00;31.73;;;15.77;;
10295;SDS011;5193;51.032;6.356;2023-03-09T09:33:29;35.10;;;16.00;;
10295;SDS011;5193;51.032;6.356;2023-03-09T09:35:59;34.40;;;16.83;;
10295;SDS011;5193;51.032;6.356;2023-03-09T09:38:31;34.10;;;16.77;;
10295;SDS011;5193;51.032;6.356;2023-03-09T09:40:59;31.83;;;16.20;;
10295;SDS011;5193;51.032;6.356;2023-03-09T09:43:29;34.20;;;16.83;;
10295;SDS011;5193;51.032;6.356;2023-03-09T09:45:56;37.03;;;17.87;;
10295;SDS011;5193;51.032;6.356;2023-03-09T09:48:24;35.70;;;17.63;;
10295;SDS011;5193;51.032;6.356;2023-03-09T09:50:59;37.97;;;17.57;;
10295;SDS011;5193;51.032;6.356;2023-03-09T09:56:18;32.50;;;15.10;;
10295;SDS011;5193;51.032;6.356;2023-03-09T09:58:50;34.17;;;16.70;;
10295;SDS011;5193;51.032;6.356;2023-03-09T10:04:02;35.00;;;17.40;;
10295;SDS011;5193;51.032;6.356;2023-03-09T10:06:34;37.13;;;17.10;;
10295;SDS011;5193;51.032;6.356;2023-03-09T10:09:05;28.50;;;13.87;;
10295;SDS011;5193;51.032;6.356;2023-03-09T10:11:54;40.43;;;17.93;;
10295;SDS011;5193;51.032;6.356;2023-03-09T10:14:37;41.87;;;17.47;;
10295;SDS011;5193;51.032;6.356;2023-03-09T10:20:16;37.83;;;18.07;;
10295;SDS011;5193;51.032;6.356;2023-03-09T10:22:48;46.90;;;17.73;;
10295;SDS011;5193;51.032;6.356;2023-03-09T10:25:16;45.70;;;19.07;;
10295;SDS011;5193;51.032;6.356;2023-03-09T10:27:55;44.47;;;19.53;;
10295;SDS011;5193;51.032;6.356;2023-03-09T10:30:50;45.67;;;19.43;;
10295;SDS011;5193;51.032;6.356;2023-03-09T10:34:14;44.33;;;18.30;;
10295;SDS011;5193;51.032;6.356;2023-03-09T10:37:00;52.87;;;20.10;;
10295;SDS011;5193;51.032;6.356;2023-03-09T10:39:34;44.90;;;19.80;;
10295;SDS011;5193;51.032;6.356;2023-03-09T10:45:22;44.33;;;19.40;;
10295;SDS011;5193;51.032;6.356;2023-03-09T10:47:55;53.67;;;21.93;;
10295;SDS011;5193;51.032;6.356;2023-03-09T10:50:28;47.93;;;21.77;;
10295;SDS011;5193;51.032;6.356;2023-03-09T10:52:56;48.97;;;21.30;;
10295;SDS011;5193;51.032;6.356;2023-03-09T10:55:41;48.33;;;20.93;;
10295;SDS011;5193;51.032;6.356;2023-03-09T10:58:13;46.17;;;21.90;;
10295;SDS011;5193;51.032;6.356;2023-03-09T11:00:48;47.27;;;20.27;;
10295;SDS011;5193;51.032;6.356;2023-03-09T11:03:36;51.33;;;21.47;;
10295;SDS011;5193;51.032;6.356;2023-03-09T11:06:07;50.70;;;21.73;;
10295;SDS011;5193;51.032;6.356;2023-03-09T11:08:53;43.07;;;19.77;;
10295;SDS011;5193;51.032;6.356;2023-03-09T11:11:46;49.00;;;21.77;;
10295;SDS011;5193;51.032;6.356;2023-03-09T11:16:50;43.37;;;20.53;;
10295;SDS011;5193;51.032;6.356;2023-03-09T11:19:18;43.63;;;20.00;;
10295;SDS011;5193;51.032;6.356;2023-03-09T11:24:38;44.23;;;19.63;;
10295;SDS011;5193;51.032;6.356;2023-03-09T11:29:57;43.77;;;20.30;;
10295;SDS011;5193;51.032;6.356;2023-03-09T11:32:27;42.37;;;20.33;;
10295;SDS011;5193;51.032;6.356;2023-03-09T11:34:53;42.23;;;19.90;;
10295;SDS011;5193;51.032;6.356;2023-03-09T11:40:00;44.60;;;19.30;;
10295;SDS011;5193;51.032;6.356;2023-03-09T11:42:37;38.77;;;19.17;;
10295;SDS011;5193;51.032;6.356;2023-03-09T11:45:13;44.97;;;20.23;;
10295;SDS011;5193;51.032;6.356;2023-03-09T11:47:43;46.57;;;21.43;;
10295;SDS011;5193;51.032;6.356;2023-03-09T11:50:17;41.70;;;20.90;;
10295;SDS011;5193;51.032;6.356;2023-03-09T11:52:47;39.63;;;20.90;;
10295;SDS011;5193;51.032;6.356;2023-03-09T11:55:18;42.60;;;22.43;;
10295;SDS011;5193;51.032;6.356;2023-03-09T11:57:48;41.23;;;20.20;;
10295;SDS011;5193;51.032;6.356;2023-03-09T12:00:18;38.87;;;20.63;;
10295;SDS011;5193;51.032;6.356;2023-03-09T12:03:08;37.67;;;18.53;;
10295;SDS011;5193;51.032;6.356;2023-03-09T12:05:59;43.43;;;21.77;;
10295;SDS011;5193;51.032;6.356;2023-03-09T12:08:30;36.93;;;20.40;;
10295;SDS011;5193;51.032;6.356;2023-03-09T12:11:10;39.63;;;20.77;;
10295;SDS011;5193;51.032;6.356;2023-03-09T12:13:49;43.83;;;20.30;;
10295;SDS011;5193;51.032;6.356;2023-03-09T12:16:23;34.90;;;18.97;;
10295;SDS011;5193;51.032;6.356;2023-03-09T12:19:26;39.07;;;20.83;;
10295;SDS011;5193;51.032;6.356;2023-03-09T12:24:37;40.00;;;20.70;;
10295;SDS011;5193;51.032;6.356;2023-03-09T12:29:45;35.70;;;18.40;;
10295;SDS011;5193;51.032;6.356;2023-03-09T12:32:17;36.67;;;20.10;;
10295;SDS011;5193;51.032;6.356;2023-03-09T12:34:46;38.43;;;20.37;;
10295;SDS011;5193;51.032;6.356;2023-03-09T12:42:47;37.63;;;20.13;;
10295;SDS011;5193;51.032;6.356;2023-03-09T12:47:54;36.93;;;20.03;;
10295;SDS011;5193;51.032;6.356;2023-03-09T12:50:32;39.30;;;20.27;;
10295;SDS011;5193;51.032;6.356;2023-03-09T13:03:31;29.50;;;16.40;;
10295;SDS011;5193;51.032;6.356;2023-03-09T13:06:04;35.10;;;18.30;;
10295;SDS011;5193;51.032;6.356;2023-03-09T13:08:48;30.57;;;16.30;;
10295;SDS011;5193;51.032;6.356;2023-03-09T13:16:52;36.63;;;18.07;;
10295;SDS011;5193;51.032;6.356;2023-03-09T13:27:16;30.47;;;16.03;;
10295;SDS011;5193;51.032;6.356;2023-03-09T13:29:50;36.43;;;15.87;;
10295;SDS011;5193;51.032;6.356;2023-03-09T13:32:31;34.47;;;16.33;;
10295;SDS011;5193;51.032;6.356;2023-03-09T13:35:00;27.20;;;14.10;;
10295;SDS011;5193;51.032;6.356;2023-03-09T13:37:34;32.57;;;16.50;;
10295;SDS011;5193;51.032;6.356;2023-03-09T13:40:05;22.23;;;14.40;;
10295;SDS011;5193;51.032;6.356;2023-03-09T13:42:46;23.50;;;13.60;;
10295;SDS011;5193;51.032;6.356;2023-03-09T13:45:17;27.97;;;14.33;;
10295;SDS011;5193;51.032;6.356;2023-03-09T13:47:44;26.03;;;14.30;;
10295;SDS011;5193;51.032;6.356;2023-03-09T13:50:16;25.30;;;14.83;;
10295;SDS011;5193;51.032;6.356;2023-03-09T13:55:31;23.10;;;14.30;;
10295;SDS011;5193;51.032;6.356;2023-03-09T14:03:24;23.57;;;13.13;;
10295;SDS011;5193;51.032;6.356;2023-03-09T14:05:56;21.83;;;13.33;;
10295;SDS011;5193;51.032;6.356;2023-03-09T14:08:24;22.90;;;13.03;;
10295;SDS011;5193;51.032;6.356;2023-03-09T14:10:53;20.37;;;12.47;;
10295;SDS011;5193;51.032;6.356;2023-03-09T14:13:22;25.20;;;12.57;;
10295;SDS011;5193;51.032;6.356;2023-03-09T14:18:39;18.80;;;12.23;;
10295;SDS011;5193;51.032;6.356;2023-03-09T14:21:18;22.27;;;13.43;;
10295;SDS011;5193;51.032;6.356;2023-03-09T14:23:55;24.10;;;14.47;;
10295;SDS011;5193;51.032;6.356;2023-03-09T14:26:35;22.60;;;13.67;;
10295;SDS011;5193;51.032;6.356;2023-03-09T14:31:29;22.87;;;14.47;;
10295;SDS011;5193;51.032;6.356;2023-03-09T14:34:02;23.77;;;13.10;;
10295;SDS011;5193;51.032;6.356;2023-03-09T14:36:32;21.90;;;12.10;;
10295;SDS011;5193;51.032;6.356;2023-03-09T14:39:26;23.23;;;11.37;;
10295;SDS011;5193;51.032;6.356;2023-03-09T14:42:01;20.47;;;11.23;;
10295;SDS011;5193;51.032;6.356;2023-03-09T14:44:40;16.73;;;11.23;;
10295;SDS011;5193;51.032;6.356;2023-03-09T14:47:14;18.43;;;9.73;;
10295;SDS011;5193;51.032;6.356;2023-03-09T14:49:41;25.97;;;12.63;;
10295;SDS011;5193;51.032;6.356;2023-03-09T14:52:11;22.40;;;11.93;;
10295;SDS011;5193;51.032;6.356;2023-03-09T14:54:37;21.53;;;12.10;;
10295;SDS011;5193;51.032;6.356;2023-03-09T14:57:03;22.37;;;12.67;;
10295;SDS011;5193;51.032;6.356;2023-03-09T14:59:29;26.63;;;13.30;;
10295;SDS011;5193;51.032;6.356;2023-03-09T15:01:55;23.17;;;12.37;;
10295;SDS011;5193;51.032;6.356;2023-03-09T15:04:25;24.83;;;13.00;;
10295;SDS011;5193;51.032;6.356;2023-03-09T15:06:52;25.77;;;13.57;;
10295;SDS011;5193;51.032;6.356;2023-03-09T15:09:18;22.60;;;12.83;;
10295;SDS011;5193;51.032;6.356;2023-03-09T15:11:44;24.57;;;12.67;;
10295;SDS011;5193;51.032;6.356;2023-03-09T15:14:14;26.73;;;12.43;;
10295;SDS011;5193;51.032;6.356;2023-03-09T15:16:40;19.93;;;12.90;;
10295;SDS011;5193;51.032;6.356;2023-03-09T15:19:10;23.53;;;12.23;;
10295;SDS011;5193;51.032;6.356;2023-03-09T15:21:41;23.57;;;12.70;;
10295;SDS011;5193;51.032;6.356;2023-03-09T15:24:07;28.13;;;13.67;;
10295;SDS011;5193;51.032;6.356;2023-03-09T15:26:34;27.97;;;14.33;;
10295;SDS011;5193;51.032;6.356;2023-03-09T15:29:00;30.60;;;14.87;;
10295;SDS011;5193;51.032;6.356;2023-03-09T15:31:26;27.47;;;14.87;;
10295;SDS011;5193;51.032;6.356;2023-03-09T15:33:51;29.87;;;16.67;;
10295;SDS011;5193;51.032;6.356;2023-03-09T15:36:17;27.13;;;12.97;;
10295;SDS011;5193;51.032;6.356;2023-03-09T15:38:42;28.03;;;13.67;;
10295;SDS011;5193;51.032;6.356;2023-03-09T15:41:09;23.00;;;12.53;;
10295;SDS011;5193;51.032;6.356;2023-03-09T15:43:35;26.60;;;14.67;;
10295;SDS011;5193;51.032;6.356;2023-03-09T15:46:03;23.80;;;13.80;;
10295;SDS011;5193;51.032;6.356;2023-03-09T15:48:29;22.43;;;13.80;;
10295;SDS011;5193;51.032;6.356;2023-03-09T15:50:55;25.47;;;14.23;;
10295;SDS011;5193;51.032;6.356;2023-03-09T15:53:21;23.03;;;14.60;;
10295;SDS011;5193;51.032;6.356;2023-03-09T15:55:54;25.70;;;14.40;;
10295;SDS011;5193;51.032;6.356;2023-03-09T15:58:20;27.20;;;16.90;;
10295;SDS011;5193;51.032;6.356;2023-03-09T16:00:46;26.03;;;12.33;;
10295;SDS011;5193;51.032;6.356;2023-03-09T16:03:11;32.20;;;15.03;;
10295;SDS011;5193;51.032;6.356;2023-03-09T16:05:37;26.30;;;12.23;;